Decoded Metar for PAFA (FAIRBANKS in AK, USA) (IATA:FAI) | Meteo·Mobile Aviation Weather
aviador You're here:

PAFA Decoded Metar

FAIRBANKS in AK, USA
Report Time2018-11-16 01:53:00
UTC Time2018-11-16 02:58:13
Flight Rules vfr VFR
Wind030° at 05 kt
W.Decomp.*RWY 02: 4.9 kt HW 1 kt LCW
W.Rank030° ranks 2
Current wind is below 030° avg. (5.2)
Visibility9999 m
Phenomena:N/A
Clouds:N/A
Expected CloudBase > 400 ft AGL from Temp-Dew spread
CeilingNone
Temp-19°C (ISA -33)
Dew Point-20°C (92% RH)
AAT-24.4°C
QNH1025 hPa
Density Alt-4,193 ft
Elevation433 ft
Report Wrong Elevation
Raw Report
PAFA 160153Z 03005KT 10SM CLR M19/M20 A3028=

Extra information for PAFA:More info

Metar Taf Metar & Taf Last 4 Metars F.Rules Stats Wind Profile Meteogram Temp Stats Airport Information Weather charts Add Link Nearby VenuesMetar ALERT Operation Metar Decoded Social comments

AIRNAV info for PAFA